sensor_id;sensor_type;location;lat;lon;timestamp;temperature;humidity
2226;DHT22;1119;48.288;8.726;2024-02-14T00:00:04;5.40;97.30
2226;DHT22;1119;48.288;8.726;2024-02-14T00:02:33;5.40;97.30
2226;DHT22;1119;48.288;8.726;2024-02-14T00:05:02;5.40;97.40
2226;DHT22;1119;48.288;8.726;2024-02-14T00:07:31;5.40;97.50
2226;DHT22;1119;48.288;8.726;2024-02-14T00:09:58;5.50;97.60
2226;DHT22;1119;48.288;8.726;2024-02-14T00:12:27;5.50;98.00
2226;DHT22;1119;48.288;8.726;2024-02-14T00:14:54;5.50;97.70
2226;DHT22;1119;48.288;8.726;2024-02-14T00:17:21;5.40;97.80
2226;DHT22;1119;48.288;8.726;2024-02-14T00:19:48;5.50;97.80
2226;DHT22;1119;48.288;8.726;2024-02-14T00:22:16;5.50;97.90
2226;DHT22;1119;48.288;8.726;2024-02-14T00:24:43;5.50;97.90
2226;DHT22;1119;48.288;8.726;2024-02-14T00:27:10;5.60;97.90
2226;DHT22;1119;48.288;8.726;2024-02-14T00:29:41;5.60;97.90
2226;DHT22;1119;48.288;8.726;2024-02-14T00:32:11;5.70;97.70
2226;DHT22;1119;48.288;8.726;2024-02-14T00:34:43;5.70;97.80
2226;DHT22;1119;48.288;8.726;2024-02-14T00:37:11;5.70;97.80
2226;DHT22;1119;48.288;8.726;2024-02-14T00:39:39;5.70;97.90
2226;DHT22;1119;48.288;8.726;2024-02-14T00:42:06;5.70;97.90
2226;DHT22;1119;48.288;8.726;2024-02-14T00:44:34;5.70;97.80
2226;DHT22;1119;48.288;8.726;2024-02-14T00:47:02;5.70;97.80
2226;DHT22;1119;48.288;8.726;2024-02-14T00:49:30;5.70;97.60
2226;DHT22;1119;48.288;8.726;2024-02-14T00:52:02;5.70;97.60
2226;DHT22;1119;48.288;8.726;2024-02-14T00:54:29;5.70;97.60
2226;DHT22;1119;48.288;8.726;2024-02-14T00:56:56;5.70;97.60
2226;DHT22;1119;48.288;8.726;2024-02-14T00:59:24;5.60;97.70
2226;DHT22;1119;48.288;8.726;2024-02-14T01:01:51;5.60;97.80
2226;DHT22;1119;48.288;8.726;2024-02-14T01:04:20;5.60;97.90
2226;DHT22;1119;48.288;8.726;2024-02-14T01:06:47;5.60;98.40
2226;DHT22;1119;48.288;8.726;2024-02-14T01:09:15;5.50;98.10
2226;DHT22;1119;48.288;8.726;2024-02-14T01:11:43;5.50;98.10
2226;DHT22;1119;48.288;8.726;2024-02-14T01:14:10;5.50;98.20
2226;DHT22;1119;48.288;8.726;2024-02-14T01:16:42;5.60;98.20
2226;DHT22;1119;48.288;8.726;2024-02-14T01:19:10;5.60;98.10
2226;DHT22;1119;48.288;8.726;2024-02-14T01:21:39;5.60;98.10
2226;DHT22;1119;48.288;8.726;2024-02-14T01:24:06;5.60;98.00
2226;DHT22;1119;48.288;8.726;2024-02-14T01:26:34;5.60;98.40
2226;DHT22;1119;48.288;8.726;2024-02-14T01:29:02;5.60;98.10
2226;DHT22;1119;48.288;8.726;2024-02-14T01:31:30;5.60;98.10
2226;DHT22;1119;48.288;8.726;2024-02-14T01:33:57;5.60;98.10
2226;DHT22;1119;48.288;8.726;2024-02-14T01:36:27;5.60;98.10
2226;DHT22;1119;48.288;8.726;2024-02-14T01:38:56;5.70;98.10
2226;DHT22;1119;48.288;8.726;2024-02-14T01:41:23;5.60;98.00
2226;DHT22;1119;48.288;8.726;2024-02-14T01:43:51;5.60;98.10
2226;DHT22;1119;48.288;8.726;2024-02-14T01:46:18;5.70;98.10
2226;DHT22;1119;48.288;8.726;2024-02-14T01:48:52;5.70;98.00
2226;DHT22;1119;48.288;8.726;2024-02-14T01:51:22;5.70;97.90
2226;DHT22;1119;48.288;8.726;2024-02-14T01:53:52;5.70;98.00
2226;DHT22;1119;48.288;8.726;2024-02-14T01:56:22;5.70;98.00
2226;DHT22;1119;48.288;8.726;2024-02-14T01:58:50;5.70;98.10
2226;DHT22;1119;48.288;8.726;2024-02-14T02:01:18;5.70;98.20
2226;DHT22;1119;48.288;8.726;2024-02-14T02:03:45;5.60;98.30
2226;DHT22;1119;48.288;8.726;2024-02-14T02:06:13;5.50;98.40
2226;DHT22;1119;48.288;8.726;2024-02-14T02:08:42;5.50;98.50
2226;DHT22;1119;48.288;8.726;2024-02-14T02:11:10;5.40;98.60
2226;DHT22;1119;48.288;8.726;2024-02-14T02:13:59;5.40;98.70
2226;DHT22;1119;48.288;8.726;2024-02-14T02:16:46;5.40;98.80
2226;DHT22;1119;48.288;8.726;2024-02-14T02:19:33;5.40;98.80
2226;DHT22;1119;48.288;8.726;2024-02-14T02:22:21;5.40;98.80
2226;DHT22;1119;48.288;8.726;2024-02-14T02:25:10;5.40;99.10
2226;DHT22;1119;48.288;8.726;2024-02-14T02:27:58;5.40;98.80
2226;DHT22;1119;48.288;8.726;2024-02-14T02:30:30;5.40;98.80
2226;DHT22;1119;48.288;8.726;2024-02-14T02:32:57;5.40;98.90
2226;DHT22;1119;48.288;8.726;2024-02-14T02:35:26;5.40;98.80
2226;DHT22;1119;48.288;8.726;2024-02-14T02:38:13;5.30;98.90
2226;DHT22;1119;48.288;8.726;2024-02-14T02:41:02;5.30;98.90
2226;DHT22;1119;48.288;8.726;2024-02-14T02:43:52;5.30;98.90
2226;DHT22;1119;48.288;8.726;2024-02-14T02:46:49;5.20;99.00
2226;DHT22;1119;48.288;8.726;2024-02-14T02:49:43;5.10;99.10
2226;DHT22;1119;48.288;8.726;2024-02-14T02:52:31;5.00;99.30
2226;DHT22;1119;48.288;8.726;2024-02-14T02:55:18;5.00;99.40
2226;DHT22;1119;48.288;8.726;2024-02-14T02:57:49;5.00;99.50
2226;DHT22;1119;48.288;8.726;2024-02-14T03:00:18;5.00;99.60
2226;DHT22;1119;48.288;8.726;2024-02-14T03:02:52;4.90;99.70
2226;DHT22;1119;48.288;8.726;2024-02-14T03:05:39;4.90;99.80
2226;DHT22;1119;48.288;8.726;2024-02-14T03:08:20;4.90;99.80
2226;DHT22;1119;48.288;8.726;2024-02-14T03:11:11;4.90;99.80
2226;DHT22;1119;48.288;8.726;2024-02-14T03:14:00;4.80;99.90
2226;DHT22;1119;48.288;8.726;2024-02-14T03:16:47;4.70;99.90
2226;DHT22;1119;48.288;8.726;2024-02-14T03:19:15;4.70;99.90
2226;DHT22;1119;48.288;8.726;2024-02-14T03:21:42;4.80;99.90
2226;DHT22;1119;48.288;8.726;2024-02-14T03:24:12;4.80;99.90
2226;DHT22;1119;48.288;8.726;2024-02-14T03:26:40;4.80;99.90
2226;DHT22;1119;48.288;8.726;2024-02-14T03:29:09;4.80;99.90
2226;DHT22;1119;48.288;8.726;2024-02-14T03:31:36;4.70;99.90
2226;DHT22;1119;48.288;8.726;2024-02-14T03:34:04;4.70;99.90
2226;DHT22;1119;48.288;8.726;2024-02-14T03:36:31;4.70;99.90
2226;DHT22;1119;48.288;8.726;2024-02-14T03:38:59;4.70;99.80
2226;DHT22;1119;48.288;8.726;2024-02-14T03:41:29;4.70;99.80
2226;DHT22;1119;48.288;8.726;2024-02-14T03:43:56;4.70;99.70
2226;DHT22;1119;48.288;8.726;2024-02-14T03:46:28;4.80;99.60
2226;DHT22;1119;48.288;8.726;2024-02-14T03:48:54;4.80;99.50
2226;DHT22;1119;48.288;8.726;2024-02-14T03:51:23;4.90;99.40
2226;DHT22;1119;48.288;8.726;2024-02-14T03:53:51;4.90;99.30
2226;DHT22;1119;48.288;8.726;2024-02-14T03:56:18;4.90;99.30
2226;DHT22;1119;48.288;8.726;2024-02-14T03:58:45;5.00;99.30
2226;DHT22;1119;48.288;8.726;2024-02-14T04:01:12;5.00;99.20
2226;DHT22;1119;48.288;8.726;2024-02-14T04:03:41;5.00;99.20
2226;DHT22;1119;48.288;8.726;2024-02-14T04:06:08;5.00;99.10
2226;DHT22;1119;48.288;8.726;2024-02-14T04:08:36;5.00;99.10
2226;DHT22;1119;48.288;8.726;2024-02-14T04:11:04;5.00;99.10
2226;DHT22;1119;48.288;8.726;2024-02-14T04:13:31;4.90;99.10
2226;DHT22;1119;48.288;8.726;2024-02-14T04:15:58;4.90;99.00
2226;DHT22;1119;48.288;8.726;2024-02-14T04:18:34;4.90;99.00
2226;DHT22;1119;48.288;8.726;2024-02-14T04:21:03;4.90;98.90
2226;DHT22;1119;48.288;8.726;2024-02-14T04:23:31;4.90;98.90
2226;DHT22;1119;48.288;8.726;2024-02-14T04:25:58;4.90;98.90
2226;DHT22;1119;48.288;8.726;2024-02-14T04:28:25;5.00;98.80
2226;DHT22;1119;48.288;8.726;2024-02-14T04:30:53;5.00;98.70
2226;DHT22;1119;48.288;8.726;2024-02-14T04:33:24;5.00;98.60
2226;DHT22;1119;48.288;8.726;2024-02-14T04:35:52;5.00;98.50
2226;DHT22;1119;48.288;8.726;2024-02-14T04:38:21;5.10;98.40
2226;DHT22;1119;48.288;8.726;2024-02-14T04:40:48;5.10;98.20
2226;DHT22;1119;48.288;8.726;2024-02-14T04:43:16;5.20;98.10
2226;DHT22;1119;48.288;8.726;2024-02-14T04:45:43;5.20;98.00
2226;DHT22;1119;48.288;8.726;2024-02-14T04:48:12;5.20;98.00
2226;DHT22;1119;48.288;8.726;2024-02-14T04:50:39;5.30;98.10
2226;DHT22;1119;48.288;8.726;2024-02-14T04:53:06;5.30;98.20
2226;DHT22;1119;48.288;8.726;2024-02-14T04:55:35;5.30;98.20
2226;DHT22;1119;48.288;8.726;2024-02-14T04:58:02;5.30;98.30
2226;DHT22;1119;48.288;8.726;2024-02-14T05:00:31;5.30;98.40
2226;DHT22;1119;48.288;8.726;2024-02-14T05:02:58;5.30;98.50
2226;DHT22;1119;48.288;8.726;2024-02-14T05:05:25;5.20;98.60
2226;DHT22;1119;48.288;8.726;2024-02-14T05:07:57;5.20;98.90
2226;DHT22;1119;48.288;8.726;2024-02-14T05:10:25;5.10;99.10
2226;DHT22;1119;48.288;8.726;2024-02-14T05:12:53;5.10;99.30
2226;DHT22;1119;48.288;8.726;2024-02-14T05:15:21;5.10;99.50
2226;DHT22;1119;48.288;8.726;2024-02-14T05:17:48;5.10;99.70
2226;DHT22;1119;48.288;8.726;2024-02-14T05:20:16;5.10;99.80
2226;DHT22;1119;48.288;8.726;2024-02-14T05:22:43;5.10;99.90
2226;DHT22;1119;48.288;8.726;2024-02-14T05:25:10;5.20;99.90
2226;DHT22;1119;48.288;8.726;2024-02-14T05:27:52;5.20;99.90
2226;DHT22;1119;48.288;8.726;2024-02-14T05:30:19;5.20;99.90
2226;DHT22;1119;48.288;8.726;2024-02-14T05:32:51;5.30;99.90
2226;DHT22;1119;48.288;8.726;2024-02-14T05:35:19;5.30;99.90
2226;DHT22;1119;48.288;8.726;2024-02-14T05:37:47;5.30;99.80
2226;DHT22;1119;48.288;8.726;2024-02-14T05:40:16;5.30;99.80
2226;DHT22;1119;48.288;8.726;2024-02-14T05:42:43;5.30;99.90
2226;DHT22;1119;48.288;8.726;2024-02-14T05:45:12;5.30;99.90
2226;DHT22;1119;48.288;8.726;2024-02-14T05:47:40;5.40;99.90
2226;DHT22;1119;48.288;8.726;2024-02-14T05:50:08;5.40;99.90
2226;DHT22;1119;48.288;8.726;2024-02-14T05:52:37;5.40;99.90
2226;DHT22;1119;48.288;8.726;2024-02-14T05:55:05;5.50;99.90
2226;DHT22;1119;48.288;8.726;2024-02-14T05:57:44;5.50;99.80
2226;DHT22;1119;48.288;8.726;2024-02-14T06:00:13;5.60;99.60
2226;DHT22;1119;48.288;8.726;2024-02-14T06:02:41;5.60;99.50
2226;DHT22;1119;48.288;8.726;2024-02-14T06:05:08;5.60;99.40
2226;DHT22;1119;48.288;8.726;2024-02-14T06:07:36;5.60;99.40
2226;DHT22;1119;48.288;8.726;2024-02-14T06:10:04;5.60;99.50
2226;DHT22;1119;48.288;8.726;2024-02-14T06:12:32;5.60;99.60
2226;DHT22;1119;48.288;8.726;2024-02-14T06:15:00;5.60;99.70
2226;DHT22;1119;48.288;8.726;2024-02-14T06:17:29;5.70;99.80
2226;DHT22;1119;48.288;8.726;2024-02-14T06:19:57;5.70;99.70
2226;DHT22;1119;48.288;8.726;2024-02-14T06:22:24;5.80;99.70
2226;DHT22;1119;48.288;8.726;2024-02-14T06:24:51;5.80;99.60
2226;DHT22;1119;48.288;8.726;2024-02-14T06:27:19;5.90;99.60
2226;DHT22;1119;48.288;8.726;2024-02-14T06:29:46;5.90;99.50
2226;DHT22;1119;48.288;8.726;2024-02-14T06:32:13;5.90;99.50
2226;DHT22;1119;48.288;8.726;2024-02-14T06:34:42;6.00;99.50
2226;DHT22;1119;48.288;8.726;2024-02-14T06:37:09;6.00;99.40
2226;DHT22;1119;48.288;8.726;2024-02-14T06:39:36;6.10;99.50
2226;DHT22;1119;48.288;8.726;2024-02-14T06:42:04;6.10;99.40
2226;DHT22;1119;48.288;8.726;2024-02-14T06:44:32;6.20;99.50
2226;DHT22;1119;48.288;8.726;2024-02-14T06:46:59;6.20;99.40
2226;DHT22;1119;48.288;8.726;2024-02-14T06:49:26;6.20;99.50
2226;DHT22;1119;48.288;8.726;2024-02-14T06:51:55;6.30;99.60
2226;DHT22;1119;48.288;8.726;2024-02-14T06:54:22;6.30;99.60
2226;DHT22;1119;48.288;8.726;2024-02-14T06:56:49;6.30;99.90
2226;DHT22;1119;48.288;8.726;2024-02-14T06:59:17;6.40;99.70
2226;DHT22;1119;48.288;8.726;2024-02-14T07:01:44;6.50;99.80
2226;DHT22;1119;48.288;8.726;2024-02-14T07:04:11;6.50;99.70
2226;DHT22;1119;48.288;8.726;2024-02-14T07:06:39;6.60;99.70
2226;DHT22;1119;48.288;8.726;2024-02-14T07:09:07;6.60;99.70
2226;DHT22;1119;48.288;8.726;2024-02-14T07:11:35;6.60;99.70
2226;DHT22;1119;48.288;8.726;2024-02-14T07:14:04;6.70;99.70
2226;DHT22;1119;48.288;8.726;2024-02-14T07:16:31;6.70;99.70
2226;DHT22;1119;48.288;8.726;2024-02-14T07:18:58;6.70;99.80
2226;DHT22;1119;48.288;8.726;2024-02-14T07:21:25;6.70;99.90
2226;DHT22;1119;48.288;8.726;2024-02-14T07:23:52;6.80;99.90
2226;DHT22;1119;48.288;8.726;2024-02-14T07:26:21;6.80;99.90
2226;DHT22;1119;48.288;8.726;2024-02-14T07:28:48;7.00;99.70
2226;DHT22;1119;48.288;8.726;2024-02-14T07:31:16;7.10;99.40
2226;DHT22;1119;48.288;8.726;2024-02-14T07:33:43;7.10;99.40
2226;DHT22;1119;48.288;8.726;2024-02-14T07:36:12;7.10;99.30
2226;DHT22;1119;48.288;8.726;2024-02-14T07:38:39;7.10;99.40
2226;DHT22;1119;48.288;8.726;2024-02-14T07:41:08;7.00;99.40
2226;DHT22;1119;48.288;8.726;2024-02-14T07:43:47;7.00;99.40
2226;DHT22;1119;48.288;8.726;2024-02-14T07:46:17;7.00;99.60
2226;DHT22;1119;48.288;8.726;2024-02-14T07:48:45;7.10;99.60
2226;DHT22;1119;48.288;8.726;2024-02-14T07:51:14;7.10;99.70
2226;DHT22;1119;48.288;8.726;2024-02-14T07:53:41;7.10;99.70
2226;DHT22;1119;48.288;8.726;2024-02-14T07:56:09;7.10;99.70
2226;DHT22;1119;48.288;8.726;2024-02-14T07:58:36;7.20;99.70
2226;DHT22;1119;48.288;8.726;2024-02-14T08:01:05;7.30;99.60
2226;DHT22;1119;48.288;8.726;2024-02-14T08:03:32;7.40;99.50
2226;DHT22;1119;48.288;8.726;2024-02-14T08:05:59;7.40;99.40
2226;DHT22;1119;48.288;8.726;2024-02-14T08:08:27;7.50;99.30
2226;DHT22;1119;48.288;8.726;2024-02-14T08:10:54;7.60;99.50
2226;DHT22;1119;48.288;8.726;2024-02-14T08:13:21;7.60;99.10
2226;DHT22;1119;48.288;8.726;2024-02-14T08:15:49;7.70;99.00
2226;DHT22;1119;48.288;8.726;2024-02-14T08:18:17;7.80;99.00
2226;DHT22;1119;48.288;8.726;2024-02-14T08:20:45;7.80;99.00
2226;DHT22;1119;48.288;8.726;2024-02-14T08:23:15;7.90;98.90
2226;DHT22;1119;48.288;8.726;2024-02-14T08:25:42;7.90;98.90
2226;DHT22;1119;48.288;8.726;2024-02-14T08:28:10;7.90;98.90
2226;DHT22;1119;48.288;8.726;2024-02-14T08:30:37;8.00;98.90
2226;DHT22;1119;48.288;8.726;2024-02-14T08:33:04;8.00;99.20
2226;DHT22;1119;48.288;8.726;2024-02-14T08:35:33;8.10;98.80
2226;DHT22;1119;48.288;8.726;2024-02-14T08:38:00;8.10;98.70
2226;DHT22;1119;48.288;8.726;2024-02-14T08:40:27;8.20;98.90
2226;DHT22;1119;48.288;8.726;2024-02-14T08:42:55;8.20;99.30
2226;DHT22;1119;48.288;8.726;2024-02-14T08:45:22;8.20;99.20
2226;DHT22;1119;48.288;8.726;2024-02-14T08:47:49;8.20;99.40
2226;DHT22;1119;48.288;8.726;2024-02-14T08:50:17;8.20;99.30
2226;DHT22;1119;48.288;8.726;2024-02-14T08:52:45;8.20;99.10
2226;DHT22;1119;48.288;8.726;2024-02-14T08:55:13;8.30;99.20
2226;DHT22;1119;48.288;8.726;2024-02-14T08:57:43;8.30;99.00
2226;DHT22;1119;48.288;8.726;2024-02-14T09:00:14;8.40;98.90
2226;DHT22;1119;48.288;8.726;2024-02-14T09:02:45;8.50;98.80
2226;DHT22;1119;48.288;8.726;2024-02-14T09:05:13;8.60;98.70
2226;DHT22;1119;48.288;8.726;2024-02-14T09:07:42;8.60;98.80
2226;DHT22;1119;48.288;8.726;2024-02-14T09:10:11;8.80;98.50
2226;DHT22;1119;48.288;8.726;2024-02-14T09:12:40;9.00;98.30
2226;DHT22;1119;48.288;8.726;2024-02-14T09:15:08;9.20;98.20
2226;DHT22;1119;48.288;8.726;2024-02-14T09:17:37;9.40;97.60
2226;DHT22;1119;48.288;8.726;2024-02-14T09:20:05;9.70;97.40
2226;DHT22;1119;48.288;8.726;2024-02-14T09:22:35;9.80;96.90
2226;DHT22;1119;48.288;8.726;2024-02-14T09:25:03;9.80;96.90
2226;DHT22;1119;48.288;8.726;2024-02-14T09:27:32;9.60;97.00
2226;DHT22;1119;48.288;8.726;2024-02-14T09:30:01;9.60;97.30
2226;DHT22;1119;48.288;8.726;2024-02-14T09:32:30;9.40;97.50
2226;DHT22;1119;48.288;8.726;2024-02-14T09:34:58;9.40;98.00
2226;DHT22;1119;48.288;8.726;2024-02-14T09:37:25;9.30;98.30
2226;DHT22;1119;48.288;8.726;2024-02-14T09:39:52;9.30;98.30
2226;DHT22;1119;48.288;8.726;2024-02-14T09:42:37;9.40;98.50
2226;DHT22;1119;48.288;8.726;2024-02-14T09:45:07;9.30;98.70
2226;DHT22;1119;48.288;8.726;2024-02-14T09:47:35;9.30;98.80
2226;DHT22;1119;48.288;8.726;2024-02-14T09:50:06;9.40;98.90
2226;DHT22;1119;48.288;8.726;2024-02-14T09:52:37;9.40;98.80
2226;DHT22;1119;48.288;8.726;2024-02-14T09:55:05;9.40;98.80
2226;DHT22;1119;48.288;8.726;2024-02-14T09:57:34;9.30;99.00
2226;DHT22;1119;48.288;8.726;2024-02-14T10:00:05;9.40;99.30
2226;DHT22;1119;48.288;8.726;2024-02-14T10:02:35;9.50;99.70
2226;DHT22;1119;48.288;8.726;2024-02-14T10:05:04;9.60;99.80
2226;DHT22;1119;48.288;8.726;2024-02-14T10:07:40;9.70;99.90
2226;DHT22;1119;48.288;8.726;2024-02-14T10:10:07;9.80;99.90
2226;DHT22;1119;48.288;8.726;2024-02-14T10:12:35;9.90;99.90
2226;DHT22;1119;48.288;8.726;2024-02-14T10:15:07;9.90;99.90
2226;DHT22;1119;48.288;8.726;2024-02-14T10:17:35;10.00;99.60
2226;DHT22;1119;48.288;8.726;2024-02-14T10:20:03;10.00;99.70
2226;DHT22;1119;48.288;8.726;2024-02-14T10:22:35;10.10;99.80
2226;DHT22;1119;48.288;8.726;2024-02-14T10:25:02;10.10;99.90
2226;DHT22;1119;48.288;8.726;2024-02-14T10:27:36;10.30;99.90
2226;DHT22;1119;48.288;8.726;2024-02-14T10:30:07;10.40;99.90
2226;DHT22;1119;48.288;8.726;2024-02-14T10:32:35;10.40;99.90
2226;DHT22;1119;48.288;8.726;2024-02-14T10:35:04;10.60;99.90
2226;DHT22;1119;48.288;8.726;2024-02-14T10:37:34;10.70;99.90
2226;DHT22;1119;48.288;8.726;2024-02-14T10:40:03;10.80;99.90
2226;DHT22;1119;48.288;8.726;2024-02-14T10:42:32;10.90;99.90
2226;DHT22;1119;48.288;8.726;2024-02-14T10:45:00;10.90;99.90
2226;DHT22;1119;48.288;8.726;2024-02-14T10:47:31;11.00;99.90
2226;DHT22;1119;48.288;8.726;2024-02-14T10:50:03;11.00;99.90
2226;DHT22;1119;48.288;8.726;2024-02-14T10:52:33;11.00;99.90
2226;DHT22;1119;48.288;8.726;2024-02-14T10:55:02;11.00;99.90
2226;DHT22;1119;48.288;8.726;2024-02-14T10:57:31;11.00;99.90
2226;DHT22;1119;48.288;8.726;2024-02-14T11:00:01;11.10;99.90
2226;DHT22;1119;48.288;8.726;2024-02-14T11:02:32;11.10;99.90
2226;DHT22;1119;48.288;8.726;2024-02-14T11:05:02;11.20;99.90
2226;DHT22;1119;48.288;8.726;2024-02-14T11:07:30;11.30;99.90
2226;DHT22;1119;48.288;8.726;2024-02-14T11:10:05;11.40;99.90
2226;DHT22;1119;48.288;8.726;2024-02-14T11:12:34;11.50;99.90
2226;DHT22;1119;48.288;8.726;2024-02-14T11:15:09;11.50;99.90
2226;DHT22;1119;48.288;8.726;2024-02-14T11:17:39;11.60;99.90
2226;DHT22;1119;48.288;8.726;2024-02-14T11:20:14;11.70;99.90
2226;DHT22;1119;48.288;8.726;2024-02-14T11:22:52;11.90;99.90
2226;DHT22;1119;48.288;8.726;2024-02-14T11:25:32;12.10;99.90
2226;DHT22;1119;48.288;8.726;2024-02-14T11:28:12;12.20;99.90
2226;DHT22;1119;48.288;8.726;2024-02-14T11:30:40;12.30;99.90
2226;DHT22;1119;48.288;8.726;2024-02-14T11:33:18;12.40;99.90
2226;DHT22;1119;48.288;8.726;2024-02-14T11:35:46;12.70;99.70
2226;DHT22;1119;48.288;8.726;2024-02-14T11:38:15;12.80;99.30
2226;DHT22;1119;48.288;8.726;2024-02-14T11:40:43;13.00;99.00
2226;DHT22;1119;48.288;8.726;2024-02-14T11:43:12;13.00;98.40
2226;DHT22;1119;48.288;8.726;2024-02-14T11:45:41;13.00;98.50
2226;DHT22;1119;48.288;8.726;2024-02-14T11:48:10;13.10;98.40
2226;DHT22;1119;48.288;8.726;2024-02-14T11:50:40;13.10;98.30
2226;DHT22;1119;48.288;8.726;2024-02-14T11:53:09;13.10;98.20
2226;DHT22;1119;48.288;8.726;2024-02-14T11:55:38;13.10;98.10
2226;DHT22;1119;48.288;8.726;2024-02-14T11:58:07;13.20;98.20
2226;DHT22;1119;48.288;8.726;2024-02-14T12:00:37;13.30;98.40
2226;DHT22;1119;48.288;8.726;2024-02-14T12:03:07;13.30;98.10
2226;DHT22;1119;48.288;8.726;2024-02-14T12:05:37;13.30;98.20
2226;DHT22;1119;48.288;8.726;2024-02-14T12:08:06;13.40;98.00
2226;DHT22;1119;48.288;8.726;2024-02-14T12:10:35;13.50;97.80
2226;DHT22;1119;48.288;8.726;2024-02-14T12:13:07;13.70;97.60
2226;DHT22;1119;48.288;8.726;2024-02-14T12:15:39;13.80;97.20
2226;DHT22;1119;48.288;8.726;2024-02-14T12:18:08;13.80;97.10
2226;DHT22;1119;48.288;8.726;2024-02-14T12:20:35;13.80;97.20
2226;DHT22;1119;48.288;8.726;2024-02-14T12:23:03;13.80;97.20
2226;DHT22;1119;48.288;8.726;2024-02-14T12:25:33;13.90;97.10
2226;DHT22;1119;48.288;8.726;2024-02-14T12:28:00;13.90;97.10
2226;DHT22;1119;48.288;8.726;2024-02-14T12:30:43;14.00;96.70
2226;DHT22;1119;48.288;8.726;2024-02-14T12:33:13;14.10;96.40
2226;DHT22;1119;48.288;8.726;2024-02-14T12:35:42;14.10;96.50
2226;DHT22;1119;48.288;8.726;2024-02-14T12:38:12;14.10;96.30
2226;DHT22;1119;48.288;8.726;2024-02-14T12:40:41;13.90;96.40
2226;DHT22;1119;48.288;8.726;2024-02-14T12:43:10;13.80;96.70
2226;DHT22;1119;48.288;8.726;2024-02-14T12:45:38;13.70;96.80
2226;DHT22;1119;48.288;8.726;2024-02-14T12:48:06;13.50;97.10
2226;DHT22;1119;48.288;8.726;2024-02-14T12:50:35;13.40;97.40
2226;DHT22;1119;48.288;8.726;2024-02-14T12:53:03;13.20;97.50
2226;DHT22;1119;48.288;8.726;2024-02-14T12:55:32;13.10;97.80
2226;DHT22;1119;48.288;8.726;2024-02-14T12:58:00;13.00;98.10
2226;DHT22;1119;48.288;8.726;2024-02-14T13:00:27;13.00;98.40
2226;DHT22;1119;48.288;8.726;2024-02-14T13:02:57;13.00;98.60
2226;DHT22;1119;48.288;8.726;2024-02-14T13:05:25;12.90;98.50
2226;DHT22;1119;48.288;8.726;2024-02-14T13:07:53;12.90;98.60
2226;DHT22;1119;48.288;8.726;2024-02-14T13:10:20;12.90;98.90
2226;DHT22;1119;48.288;8.726;2024-02-14T13:12:49;12.90;99.00
2226;DHT22;1119;48.288;8.726;2024-02-14T13:15:16;13.00;98.90
2226;DHT22;1119;48.288;8.726;2024-02-14T13:17:44;13.10;98.80
2226;DHT22;1119;48.288;8.726;2024-02-14T13:20:11;13.10;98.80
2226;DHT22;1119;48.288;8.726;2024-02-14T13:22:41;13.10;98.50
2226;DHT22;1119;48.288;8.726;2024-02-14T13:25:08;13.00;98.80
2226;DHT22;1119;48.288;8.726;2024-02-14T13:27:36;13.00;99.10
2226;DHT22;1119;48.288;8.726;2024-02-14T13:30:06;13.10;99.20
2226;DHT22;1119;48.288;8.726;2024-02-14T13:32:34;13.10;99.00
2226;DHT22;1119;48.288;8.726;2024-02-14T13:35:02;13.20;98.90
2226;DHT22;1119;48.288;8.726;2024-02-14T13:37:31;13.20;98.80
2226;DHT22;1119;48.288;8.726;2024-02-14T13:39:58;13.20;98.80
2226;DHT22;1119;48.288;8.726;2024-02-14T13:42:26;13.30;98.80
2226;DHT22;1119;48.288;8.726;2024-02-14T13:44:56;13.40;98.70
2226;DHT22;1119;48.288;8.726;2024-02-14T13:47:25;13.50;98.70
2226;DHT22;1119;48.288;8.726;2024-02-14T13:49:52;13.30;98.60
2226;DHT22;1119;48.288;8.726;2024-02-14T13:52:19;13.30;98.70
2226;DHT22;1119;48.288;8.726;2024-02-14T13:54:47;13.30;98.50
2226;DHT22;1119;48.288;8.726;2024-02-14T13:57:14;13.30;98.70
2226;DHT22;1119;48.288;8.726;2024-02-14T13:59:41;13.20;98.80
2226;DHT22;1119;48.288;8.726;2024-02-14T14:02:09;13.10;99.00
2226;DHT22;1119;48.288;8.726;2024-02-14T14:04:37;12.90;99.20
2226;DHT22;1119;48.288;8.726;2024-02-14T14:07:05;12.90;99.60
2226;DHT22;1119;48.288;8.726;2024-02-14T14:09:34;12.90;99.60
2226;DHT22;1119;48.288;8.726;2024-02-14T14:12:01;12.90;99.80
2226;DHT22;1119;48.288;8.726;2024-02-14T14:14:28;12.90;99.80
2226;DHT22;1119;48.288;8.726;2024-02-14T14:16:56;13.00;99.90
2226;DHT22;1119;48.288;8.726;2024-02-14T14:19:23;13.00;99.80
2226;DHT22;1119;48.288;8.726;2024-02-14T14:21:52;13.00;99.80
2226;DHT22;1119;48.288;8.726;2024-02-14T14:24:20;13.00;99.90
2226;DHT22;1119;48.288;8.726;2024-02-14T14:26:49;13.00;99.70
2226;DHT22;1119;48.288;8.726;2024-02-14T14:29:17;13.00;99.50
2226;DHT22;1119;48.288;8.726;2024-02-14T14:31:44;13.00;99.50
2226;DHT22;1119;48.288;8.726;2024-02-14T14:34:12;13.00;99.40
2226;DHT22;1119;48.288;8.726;2024-02-14T14:36:39;13.00;99.30
2226;DHT22;1119;48.288;8.726;2024-02-14T14:39:08;13.00;99.50
2226;DHT22;1119;48.288;8.726;2024-02-14T14:41:37;13.10;99.60
2226;DHT22;1119;48.288;8.726;2024-02-14T14:44:04;13.00;99.40
2226;DHT22;1119;48.288;8.726;2024-02-14T14:46:31;13.00;99.30
2226;DHT22;1119;48.288;8.726;2024-02-14T14:49:01;12.90;99.20
2226;DHT22;1119;48.288;8.726;2024-02-14T14:51:29;12.80;99.40
2226;DHT22;1119;48.288;8.726;2024-02-14T14:53:56;12.80;99.60
2226;DHT22;1119;48.288;8.726;2024-02-14T14:56:24;12.70;99.70
2226;DHT22;1119;48.288;8.726;2024-02-14T14:58:53;12.80;99.80
2226;DHT22;1119;48.288;8.726;2024-02-14T15:01:21;12.70;99.80
2226;DHT22;1119;48.288;8.726;2024-02-14T15:03:49;12.80;99.90
2226;DHT22;1119;48.288;8.726;2024-02-14T15:06:18;12.80;99.80
2226;DHT22;1119;48.288;8.726;2024-02-14T15:08:45;12.70;99.70
2226;DHT22;1119;48.288;8.726;2024-02-14T15:11:14;12.70;99.80
2226;DHT22;1119;48.288;8.726;2024-02-14T15:13:45;12.70;99.60
2226;DHT22;1119;48.288;8.726;2024-02-14T15:16:12;12.70;99.60
2226;DHT22;1119;48.288;8.726;2024-02-14T15:18:40;12.70;99.60
2226;DHT22;1119;48.288;8.726;2024-02-14T15:21:09;12.70;99.60
2226;DHT22;1119;48.288;8.726;2024-02-14T15:23:37;12.60;99.60
2226;DHT22;1119;48.288;8.726;2024-02-14T15:26:04;12.60;99.60
2226;DHT22;1119;48.288;8.726;2024-02-14T15:28:32;12.60;99.70
2226;DHT22;1119;48.288;8.726;2024-02-14T15:31:07;12.60;99.50
2226;DHT22;1119;48.288;8.726;2024-02-14T15:33:52;12.50;99.50
2226;DHT22;1119;48.288;8.726;2024-02-14T15:36:21;12.50;99.60
2226;DHT22;1119;48.288;8.726;2024-02-14T15:38:49;12.60;99.60
2226;DHT22;1119;48.288;8.726;2024-02-14T15:41:18;12.60;99.60
2226;DHT22;1119;48.288;8.726;2024-02-14T15:43:45;12.50;99.70
2226;DHT22;1119;48.288;8.726;2024-02-14T15:46:14;12.50;99.80
2226;DHT22;1119;48.288;8.726;2024-02-14T15:48:44;12.50;99.90
2226;DHT22;1119;48.288;8.726;2024-02-14T15:51:11;12.50;99.90
2226;DHT22;1119;48.288;8.726;2024-02-14T15:53:41;12.40;99.80
2226;DHT22;1119;48.288;8.726;2024-02-14T15:56:08;12.40;99.90
2226;DHT22;1119;48.288;8.726;2024-02-14T15:58:37;12.30;99.80
2226;DHT22;1119;48.288;8.726;2024-02-14T16:01:05;12.30;99.90
2226;DHT22;1119;48.288;8.726;2024-02-14T16:03:34;12.20;99.90
2226;DHT22;1119;48.288;8.726;2024-02-14T16:06:01;12.20;99.90
2226;DHT22;1119;48.288;8.726;2024-02-14T16:08:30;12.10;99.90
2226;DHT22;1119;48.288;8.726;2024-02-14T16:10:57;12.10;99.90
2226;DHT22;1119;48.288;8.726;2024-02-14T16:13:25;12.00;99.90
2226;DHT22;1119;48.288;8.726;2024-02-14T16:15:52;12.00;99.90
2226;DHT22;1119;48.288;8.726;2024-02-14T16:18:19;12.00;99.90
2226;DHT22;1119;48.288;8.726;2024-02-14T16:20:48;12.00;99.90
2226;DHT22;1119;48.288;8.726;2024-02-14T16:23:16;12.00;99.90
2226;DHT22;1119;48.288;8.726;2024-02-14T16:25:44;12.00;99.90